sensor_id;sensor_type;location;lat;lon;timestamp;temperature;humidity
30336;DHT22;17142;47.990;7.846;2024-03-08T00:01:39;1.50;99.90
30336;DHT22;17142;47.990;7.846;2024-03-08T00:04:06;1.50;99.90
30336;DHT22;17142;47.990;7.846;2024-03-08T00:06:32;1.50;99.90
30336;DHT22;17142;47.990;7.846;2024-03-08T00:08:58;1.50;99.90
30336;DHT22;17142;47.990;7.846;2024-03-08T00:11:25;1.40;99.90
30336;DHT22;17142;47.990;7.846;2024-03-08T00:13:52;1.50;99.90
30336;DHT22;17142;47.990;7.846;2024-03-08T00:16:18;1.40;99.90
30336;DHT22;17142;47.990;7.846;2024-03-08T00:18:48;1.40;99.90
30336;DHT22;17142;47.990;7.846;2024-03-08T00:21:14;1.40;99.90
30336;DHT22;17142;47.990;7.846;2024-03-08T00:23:41;1.40;99.90
30336;DHT22;17142;47.990;7.846;2024-03-08T00:26:06;1.30;99.90
30336;DHT22;17142;47.990;7.846;2024-03-08T00:28:32;1.20;99.90
30336;DHT22;17142;47.990;7.846;2024-03-08T00:31:00;1.20;99.90
30336;DHT22;17142;47.990;7.846;2024-03-08T00:33:25;1.20;99.90
30336;DHT22;17142;47.990;7.846;2024-03-08T00:35:55;1.10;99.90
30336;DHT22;17142;47.990;7.846;2024-03-08T00:38:20;1.20;99.90
30336;DHT22;17142;47.990;7.846;2024-03-08T00:40:46;1.10;99.90
30336;DHT22;17142;47.990;7.846;2024-03-08T00:43:12;1.20;99.90
30336;DHT22;17142;47.990;7.846;2024-03-08T00:45:41;1.20;99.90
30336;DHT22;17142;47.990;7.846;2024-03-08T00:48:09;1.30;99.90
30336;DHT22;17142;47.990;7.846;2024-03-08T00:50:36;1.20;99.90
30336;DHT22;17142;47.990;7.846;2024-03-08T00:53:02;1.10;99.90
30336;DHT22;17142;47.990;7.846;2024-03-08T00:55:27;1.20;99.90
30336;DHT22;17142;47.990;7.846;2024-03-08T00:57:59;1.20;99.90
30336;DHT22;17142;47.990;7.846;2024-03-08T01:00:27;1.20;99.90
30336;DHT22;17142;47.990;7.846;2024-03-08T01:02:53;1.10;99.90
30336;DHT22;17142;47.990;7.846;2024-03-08T01:05:18;1.00;99.90
30336;DHT22;17142;47.990;7.846;2024-03-08T01:07:44;1.00;99.90
30336;DHT22;17142;47.990;7.846;2024-03-08T01:10:12;0.90;99.90
30336;DHT22;17142;47.990;7.846;2024-03-08T01:12:38;0.80;99.90
30336;DHT22;17142;47.990;7.846;2024-03-08T01:15:05;0.70;99.90
30336;DHT22;17142;47.990;7.846;2024-03-08T01:17:31;0.60;99.90
30336;DHT22;17142;47.990;7.846;2024-03-08T01:19:56;0.50;99.90
30336;DHT22;17142;47.990;7.846;2024-03-08T01:22:22;0.50;99.90
30336;DHT22;17142;47.990;7.846;2024-03-08T01:24:48;0.60;99.90
30336;DHT22;17142;47.990;7.846;2024-03-08T01:27:14;0.70;99.90
30336;DHT22;17142;47.990;7.846;2024-03-08T01:29:42;0.80;99.90
30336;DHT22;17142;47.990;7.846;2024-03-08T01:32:08;0.80;99.90
30336;DHT22;17142;47.990;7.846;2024-03-08T01:34:33;0.80;99.90
30336;DHT22;17142;47.990;7.846;2024-03-08T01:37:01;0.70;99.90
30336;DHT22;17142;47.990;7.846;2024-03-08T01:39:30;0.80;99.90
30336;DHT22;17142;47.990;7.846;2024-03-08T01:41:55;0.70;99.90
30336;DHT22;17142;47.990;7.846;2024-03-08T01:44:21;0.70;99.90
30336;DHT22;17142;47.990;7.846;2024-03-08T01:46:47;0.60;99.90
30336;DHT22;17142;47.990;7.846;2024-03-08T01:49:16;0.50;99.90
30336;DHT22;17142;47.990;7.846;2024-03-08T01:51:43;0.50;99.90
30336;DHT22;17142;47.990;7.846;2024-03-08T01:54:10;0.40;99.90
30336;DHT22;17142;47.990;7.846;2024-03-08T01:56:38;0.40;99.90
30336;DHT22;17142;47.990;7.846;2024-03-08T01:59:04;0.40;99.90
30336;DHT22;17142;47.990;7.846;2024-03-08T02:01:33;0.40;99.90
30336;DHT22;17142;47.990;7.846;2024-03-08T02:03:59;0.30;99.90
30336;DHT22;17142;47.990;7.846;2024-03-08T02:06:25;0.40;99.90
30336;DHT22;17142;47.990;7.846;2024-03-08T02:08:53;0.30;99.90
30336;DHT22;17142;47.990;7.846;2024-03-08T02:11:19;0.30;99.90
30336;DHT22;17142;47.990;7.846;2024-03-08T02:13:46;0.30;99.90
30336;DHT22;17142;47.990;7.846;2024-03-08T02:16:12;0.40;99.90
30336;DHT22;17142;47.990;7.846;2024-03-08T02:18:37;0.40;99.90
30336;DHT22;17142;47.990;7.846;2024-03-08T02:21:06;0.40;99.90
30336;DHT22;17142;47.990;7.846;2024-03-08T02:23:33;0.50;99.90
30336;DHT22;17142;47.990;7.846;2024-03-08T02:25:59;0.60;99.90
30336;DHT22;17142;47.990;7.846;2024-03-08T02:28:27;0.70;99.90
30336;DHT22;17142;47.990;7.846;2024-03-08T02:30:58;0.80;99.90
30336;DHT22;17142;47.990;7.846;2024-03-08T02:33:25;0.80;99.90
30336;DHT22;17142;47.990;7.846;2024-03-08T02:35:50;0.80;99.90
30336;DHT22;17142;47.990;7.846;2024-03-08T02:38:18;0.80;99.90
30336;DHT22;17142;47.990;7.846;2024-03-08T02:40:48;0.80;99.90
30336;DHT22;17142;47.990;7.846;2024-03-08T02:43:20;0.90;99.90
30336;DHT22;17142;47.990;7.846;2024-03-08T02:45:50;0.90;99.90
30336;DHT22;17142;47.990;7.846;2024-03-08T02:48:15;0.90;99.90
30336;DHT22;17142;47.990;7.846;2024-03-08T02:50:44;0.90;99.90
30336;DHT22;17142;47.990;7.846;2024-03-08T02:53:13;1.00;99.90
30336;DHT22;17142;47.990;7.846;2024-03-08T02:55:39;1.00;99.90
30336;DHT22;17142;47.990;7.846;2024-03-08T02:58:05;0.90;99.90
30336;DHT22;17142;47.990;7.846;2024-03-08T03:00:36;0.90;99.90
30336;DHT22;17142;47.990;7.846;2024-03-08T03:03:01;0.90;99.90
30336;DHT22;17142;47.990;7.846;2024-03-08T03:05:32;0.90;99.90
30336;DHT22;17142;47.990;7.846;2024-03-08T03:08:00;0.80;99.90
30336;DHT22;17142;47.990;7.846;2024-03-08T03:10:26;0.90;99.90
30336;DHT22;17142;47.990;7.846;2024-03-08T03:12:51;0.90;99.90
30336;DHT22;17142;47.990;7.846;2024-03-08T03:15:18;0.80;99.90
30336;DHT22;17142;47.990;7.846;2024-03-08T03:17:48;0.70;99.90
30336;DHT22;17142;47.990;7.846;2024-03-08T03:20:16;0.60;99.90
30336;DHT22;17142;47.990;7.846;2024-03-08T03:22:51;0.50;99.90
30336;DHT22;17142;47.990;7.846;2024-03-08T03:25:22;0.50;99.90
30336;DHT22;17142;47.990;7.846;2024-03-08T03:28:00;0.50;99.90
30336;DHT22;17142;47.990;7.846;2024-03-08T03:30:34;0.40;99.90
30336;DHT22;17142;47.990;7.846;2024-03-08T03:33:00;0.40;99.90
30336;DHT22;17142;47.990;7.846;2024-03-08T03:35:27;0.30;99.90
30336;DHT22;17142;47.990;7.846;2024-03-08T03:37:56;0.30;99.90
30336;DHT22;17142;47.990;7.846;2024-03-08T03:40:37;0.10;99.90
30336;DHT22;17142;47.990;7.846;2024-03-08T03:43:08;0.00;99.90
30336;DHT22;17142;47.990;7.846;2024-03-08T03:45:35;0.00;99.90
30336;DHT22;17142;47.990;7.846;2024-03-08T03:48:07;-0.10;99.90
30336;DHT22;17142;47.990;7.846;2024-03-08T03:50:34;0.10;99.90
30336;DHT22;17142;47.990;7.846;2024-03-08T03:53:00;0.20;99.90
30336;DHT22;17142;47.990;7.846;2024-03-08T03:55:27;0.30;99.90
30336;DHT22;17142;47.990;7.846;2024-03-08T03:57:52;0.30;99.90
30336;DHT22;17142;47.990;7.846;2024-03-08T04:00:18;0.30;99.90
30336;DHT22;17142;47.990;7.846;2024-03-08T04:02:44;0.40;99.90
30336;DHT22;17142;47.990;7.846;2024-03-08T04:05:10;0.40;99.90
30336;DHT22;17142;47.990;7.846;2024-03-08T04:07:37;0.40;99.90
30336;DHT22;17142;47.990;7.846;2024-03-08T04:10:04;0.50;99.90
30336;DHT22;17142;47.990;7.846;2024-03-08T04:12:34;0.50;99.90
30336;DHT22;17142;47.990;7.846;2024-03-08T04:15:00;0.60;99.90
30336;DHT22;17142;47.990;7.846;2024-03-08T04:17:28;0.60;99.90
30336;DHT22;17142;47.990;7.846;2024-03-08T04:19:54;0.70;99.90
30336;DHT22;17142;47.990;7.846;2024-03-08T04:22:24;0.70;99.90
30336;DHT22;17142;47.990;7.846;2024-03-08T04:24:54;0.60;99.90
30336;DHT22;17142;47.990;7.846;2024-03-08T04:27:24;0.50;99.90
30336;DHT22;17142;47.990;7.846;2024-03-08T04:29:49;0.50;99.90
30336;DHT22;17142;47.990;7.846;2024-03-08T04:32:15;0.40;99.90
30336;DHT22;17142;47.990;7.846;2024-03-08T04:34:41;0.40;99.90
30336;DHT22;17142;47.990;7.846;2024-03-08T04:37:11;0.40;99.90
30336;DHT22;17142;47.990;7.846;2024-03-08T04:39:39;0.50;99.90
30336;DHT22;17142;47.990;7.846;2024-03-08T04:42:07;0.50;99.90
30336;DHT22;17142;47.990;7.846;2024-03-08T04:44:36;0.50;99.90
30336;DHT22;17142;47.990;7.846;2024-03-08T04:47:05;0.50;99.90
30336;DHT22;17142;47.990;7.846;2024-03-08T04:49:33;0.40;99.90
30336;DHT22;17142;47.990;7.846;2024-03-08T04:52:05;0.50;99.90
30336;DHT22;17142;47.990;7.846;2024-03-08T04:54:32;0.50;99.90
30336;DHT22;17142;47.990;7.846;2024-03-08T04:56:58;0.50;99.90
30336;DHT22;17142;47.990;7.846;2024-03-08T04:59:28;0.40;99.90
30336;DHT22;17142;47.990;7.846;2024-03-08T05:01:56;0.30;99.90
30336;DHT22;17142;47.990;7.846;2024-03-08T05:04:22;0.30;99.90
30336;DHT22;17142;47.990;7.846;2024-03-08T05:06:48;0.30;99.90
30336;DHT22;17142;47.990;7.846;2024-03-08T05:09:14;0.30;99.90
30336;DHT22;17142;47.990;7.846;2024-03-08T05:11:43;0.40;99.90
30336;DHT22;17142;47.990;7.846;2024-03-08T05:14:14;0.50;99.90
30336;DHT22;17142;47.990;7.846;2024-03-08T05:16:46;0.40;99.90
30336;DHT22;17142;47.990;7.846;2024-03-08T05:19:18;0.50;99.90
30336;DHT22;17142;47.990;7.846;2024-03-08T05:21:45;0.50;99.90
30336;DHT22;17142;47.990;7.846;2024-03-08T05:24:11;0.50;99.90
30336;DHT22;17142;47.990;7.846;2024-03-08T05:26:37;0.40;99.90
30336;DHT22;17142;47.990;7.846;2024-03-08T05:29:03;0.40;99.90
30336;DHT22;17142;47.990;7.846;2024-03-08T05:31:29;0.50;99.90
30336;DHT22;17142;47.990;7.846;2024-03-08T05:33:56;0.50;99.90
30336;DHT22;17142;47.990;7.846;2024-03-08T05:36:24;0.50;99.90
30336;DHT22;17142;47.990;7.846;2024-03-08T05:38:52;0.40;99.90
30336;DHT22;17142;47.990;7.846;2024-03-08T05:41:17;0.50;99.90
30336;DHT22;17142;47.990;7.846;2024-03-08T05:43:43;0.50;99.90
30336;DHT22;17142;47.990;7.846;2024-03-08T05:46:09;0.50;99.90
30336;DHT22;17142;47.990;7.846;2024-03-08T05:48:37;0.50;99.90
30336;DHT22;17142;47.990;7.846;2024-03-08T05:51:03;0.50;99.90
30336;DHT22;17142;47.990;7.846;2024-03-08T05:53:29;0.50;99.90
30336;DHT22;17142;47.990;7.846;2024-03-08T05:55:58;0.50;99.90
30336;DHT22;17142;47.990;7.846;2024-03-08T05:58:27;0.40;99.90
30336;DHT22;17142;47.990;7.846;2024-03-08T06:00:55;0.40;99.90
30336;DHT22;17142;47.990;7.846;2024-03-08T06:03:21;0.40;99.90
30336;DHT22;17142;47.990;7.846;2024-03-08T06:05:48;0.30;99.90
30336;DHT22;17142;47.990;7.846;2024-03-08T06:08:14;0.30;99.90
30336;DHT22;17142;47.990;7.846;2024-03-08T06:10:42;0.30;99.90
30336;DHT22;17142;47.990;7.846;2024-03-08T06:13:08;0.40;99.90
30336;DHT22;17142;47.990;7.846;2024-03-08T06:15:37;0.50;99.90
30336;DHT22;17142;47.990;7.846;2024-03-08T06:18:05;0.60;99.90
30336;DHT22;17142;47.990;7.846;2024-03-08T06:20:33;0.70;99.90
30336;DHT22;17142;47.990;7.846;2024-03-08T06:22:59;0.70;99.90
30336;DHT22;17142;47.990;7.846;2024-03-08T06:25:25;0.80;99.90
30336;DHT22;17142;47.990;7.846;2024-03-08T06:27:53;0.80;99.90
30336;DHT22;17142;47.990;7.846;2024-03-08T06:30:18;0.80;99.90
30336;DHT22;17142;47.990;7.846;2024-03-08T06:32:48;0.90;99.90
30336;DHT22;17142;47.990;7.846;2024-03-08T06:35:13;1.10;99.90
30336;DHT22;17142;47.990;7.846;2024-03-08T06:37:41;1.50;99.90
30336;DHT22;17142;47.990;7.846;2024-03-08T06:40:12;1.80;99.90
30336;DHT22;17142;47.990;7.846;2024-03-08T06:42:40;2.10;99.90
30336;DHT22;17142;47.990;7.846;2024-03-08T06:45:06;2.40;99.90
30336;DHT22;17142;47.990;7.846;2024-03-08T06:47:34;2.50;99.90
30336;DHT22;17142;47.990;7.846;2024-03-08T06:50:00;2.50;99.90
30336;DHT22;17142;47.990;7.846;2024-03-08T06:52:25;2.60;99.90
30336;DHT22;17142;47.990;7.846;2024-03-08T06:54:51;2.60;99.90
30336;DHT22;17142;47.990;7.846;2024-03-08T06:57:18;2.60;99.90
30336;DHT22;17142;47.990;7.846;2024-03-08T06:59:47;2.70;99.90
30336;DHT22;17142;47.990;7.846;2024-03-08T07:02:13;3.00;99.90
30336;DHT22;17142;47.990;7.846;2024-03-08T07:04:39;3.30;99.90
30336;DHT22;17142;47.990;7.846;2024-03-08T07:07:05;3.40;99.90
30336;DHT22;17142;47.990;7.846;2024-03-08T07:09:31;3.70;99.90
30336;DHT22;17142;47.990;7.846;2024-03-08T07:11:56;4.00;99.90
30336;DHT22;17142;47.990;7.846;2024-03-08T07:14:23;4.30;99.90
30336;DHT22;17142;47.990;7.846;2024-03-08T07:16:49;4.50;99.90
30336;DHT22;17142;47.990;7.846;2024-03-08T07:19:16;4.80;99.90
30336;DHT22;17142;47.990;7.846;2024-03-08T07:21:45;4.70;99.90
30336;DHT22;17142;47.990;7.846;2024-03-08T07:24:13;4.80;99.90
30336;DHT22;17142;47.990;7.846;2024-03-08T07:26:53;4.60;99.90
30336;DHT22;17142;47.990;7.846;2024-03-08T07:29:21;4.70;99.90
30336;DHT22;17142;47.990;7.846;2024-03-08T07:31:47;4.70;99.90
30336;DHT22;17142;47.990;7.846;2024-03-08T07:34:21;4.60;99.90
30336;DHT22;17142;47.990;7.846;2024-03-08T07:36:47;4.60;99.90
30336;DHT22;17142;47.990;7.846;2024-03-08T07:39:12;4.70;99.90
30336;DHT22;17142;47.990;7.846;2024-03-08T07:41:39;5.20;99.90
30336;DHT22;17142;47.990;7.846;2024-03-08T07:44:08;5.50;99.90
30336;DHT22;17142;47.990;7.846;2024-03-08T07:46:34;5.80;99.90
30336;DHT22;17142;47.990;7.846;2024-03-08T07:49:03;6.30;99.90
30336;DHT22;17142;47.990;7.846;2024-03-08T07:51:31;6.70;99.90
30336;DHT22;17142;47.990;7.846;2024-03-08T07:53:59;6.80;99.90
30336;DHT22;17142;47.990;7.846;2024-03-08T07:56:25;7.20;99.90
30336;DHT22;17142;47.990;7.846;2024-03-08T07:58:51;7.30;99.90
30336;DHT22;17142;47.990;7.846;2024-03-08T08:01:18;7.20;99.90
30336;DHT22;17142;47.990;7.846;2024-03-08T08:03:45;7.50;99.90
30336;DHT22;17142;47.990;7.846;2024-03-08T08:06:10;7.70;99.90
30336;DHT22;17142;47.990;7.846;2024-03-08T08:08:42;7.90;99.90
30336;DHT22;17142;47.990;7.846;2024-03-08T08:11:08;7.60;99.90
30336;DHT22;17142;47.990;7.846;2024-03-08T08:13:35;7.70;99.90
30336;DHT22;17142;47.990;7.846;2024-03-08T08:16:04;7.60;99.90
30336;DHT22;17142;47.990;7.846;2024-03-08T08:18:31;7.00;99.90
30336;DHT22;17142;47.990;7.846;2024-03-08T08:20:58;7.10;99.90
30336;DHT22;17142;47.990;7.846;2024-03-08T08:23:25;7.40;99.90
30336;DHT22;17142;47.990;7.846;2024-03-08T08:25:51;7.10;99.90
30336;DHT22;17142;47.990;7.846;2024-03-08T08:28:17;6.80;99.90
30336;DHT22;17142;47.990;7.846;2024-03-08T08:30:44;7.00;99.90
30336;DHT22;17142;47.990;7.846;2024-03-08T08:33:11;6.80;99.90
30336;DHT22;17142;47.990;7.846;2024-03-08T08:35:37;6.60;99.90
30336;DHT22;17142;47.990;7.846;2024-03-08T08:38:05;6.30;99.90
30336;DHT22;17142;47.990;7.846;2024-03-08T08:40:34;6.10;99.90
30336;DHT22;17142;47.990;7.846;2024-03-08T08:43:01;6.30;99.90
30336;DHT22;17142;47.990;7.846;2024-03-08T08:45:30;6.30;99.90
30336;DHT22;17142;47.990;7.846;2024-03-08T08:47:56;6.60;99.90
30336;DHT22;17142;47.990;7.846;2024-03-08T08:50:22;7.00;99.90
30336;DHT22;17142;47.990;7.846;2024-03-08T08:52:49;6.80;99.90
30336;DHT22;17142;47.990;7.846;2024-03-08T08:55:15;6.60;99.90
30336;DHT22;17142;47.990;7.846;2024-03-08T08:57:41;6.70;99.90
30336;DHT22;17142;47.990;7.846;2024-03-08T09:00:09;6.70;99.90
30336;DHT22;17142;47.990;7.846;2024-03-08T09:02:41;7.00;99.90
30336;DHT22;17142;47.990;7.846;2024-03-08T09:05:09;6.80;99.90
30336;DHT22;17142;47.990;7.846;2024-03-08T09:07:35;6.80;99.90
30336;DHT22;17142;47.990;7.846;2024-03-08T09:10:01;6.90;99.90
30336;DHT22;17142;47.990;7.846;2024-03-08T09:12:26;6.90;99.90
30336;DHT22;17142;47.990;7.846;2024-03-08T09:14:55;6.90;99.90
30336;DHT22;17142;47.990;7.846;2024-03-08T09:17:21;6.70;99.90
30336;DHT22;17142;47.990;7.846;2024-03-08T09:19:47;6.60;99.90
30336;DHT22;17142;47.990;7.846;2024-03-08T09:22:13;6.50;99.90
30336;DHT22;17142;47.990;7.846;2024-03-08T09:24:39;6.60;99.90
30336;DHT22;17142;47.990;7.846;2024-03-08T09:27:05;6.30;99.90
30336;DHT22;17142;47.990;7.846;2024-03-08T09:29:30;6.60;99.90
30336;DHT22;17142;47.990;7.846;2024-03-08T09:31:56;6.90;99.90
30336;DHT22;17142;47.990;7.846;2024-03-08T09:34:27;6.80;99.90
30336;DHT22;17142;47.990;7.846;2024-03-08T09:36:53;6.60;99.90
30336;DHT22;17142;47.990;7.846;2024-03-08T09:39:21;6.60;99.90
30336;DHT22;17142;47.990;7.846;2024-03-08T09:41:49;6.30;99.90
30336;DHT22;17142;47.990;7.846;2024-03-08T09:44:16;6.20;99.90
30336;DHT22;17142;47.990;7.846;2024-03-08T09:46:42;6.30;99.90
30336;DHT22;17142;47.990;7.846;2024-03-08T09:49:08;6.50;99.90
30336;DHT22;17142;47.990;7.846;2024-03-08T09:51:36;6.60;99.90
30336;DHT22;17142;47.990;7.846;2024-03-08T09:54:02;6.60;99.90
30336;DHT22;17142;47.990;7.846;2024-03-08T09:56:35;6.50;99.90
30336;DHT22;17142;47.990;7.846;2024-03-08T09:59:03;6.60;99.90
30336;DHT22;17142;47.990;7.846;2024-03-08T10:01:50;6.90;99.90
30336;DHT22;17142;47.990;7.846;2024-03-08T10:04:17;6.90;99.90
30336;DHT22;17142;47.990;7.846;2024-03-08T10:06:46;6.80;99.90
30336;DHT22;17142;47.990;7.846;2024-03-08T10:09:14;6.80;99.90
30336;DHT22;17142;47.990;7.846;2024-03-08T10:11:42;6.80;99.90
30336;DHT22;17142;47.990;7.846;2024-03-08T10:14:12;7.00;99.90
30336;DHT22;17142;47.990;7.846;2024-03-08T10:16:40;7.10;99.90
30336;DHT22;17142;47.990;7.846;2024-03-08T10:19:08;7.10;99.90
30336;DHT22;17142;47.990;7.846;2024-03-08T10:21:50;7.40;99.90
30336;DHT22;17142;47.990;7.846;2024-03-08T10:24:20;7.50;99.90
30336;DHT22;17142;47.990;7.846;2024-03-08T10:27:00;7.30;99.90
30336;DHT22;17142;47.990;7.846;2024-03-08T10:29:27;7.20;99.90
30336;DHT22;17142;47.990;7.846;2024-03-08T10:31:54;7.20;99.90
30336;DHT22;17142;47.990;7.846;2024-03-08T10:34:22;7.30;99.90
30336;DHT22;17142;47.990;7.846;2024-03-08T10:36:51;7.30;99.90
30336;DHT22;17142;47.990;7.846;2024-03-08T10:39:22;7.40;99.90
30336;DHT22;17142;47.990;7.846;2024-03-08T10:41:53;7.40;99.90
30336;DHT22;17142;47.990;7.846;2024-03-08T10:50:19;7.70;99.90
30336;DHT22;17142;47.990;7.846;2024-03-08T10:52:50;7.70;99.90
30336;DHT22;17142;47.990;7.846;2024-03-08T10:55:18;7.70;99.90
30336;DHT22;17142;47.990;7.846;2024-03-08T10:57:46;7.70;99.90
30336;DHT22;17142;47.990;7.846;2024-03-08T11:00:13;7.70;99.90
30336;DHT22;17142;47.990;7.846;2024-03-08T11:02:48;7.70;99.90
30336;DHT22;17142;47.990;7.846;2024-03-08T11:05:38;7.70;99.90
30336;DHT22;17142;47.990;7.846;2024-03-08T11:08:20;7.70;99.90
30336;DHT22;17142;47.990;7.846;2024-03-08T11:10:53;7.90;99.90
30336;DHT22;17142;47.990;7.846;2024-03-08T11:13:48;7.80;99.90
30336;DHT22;17142;47.990;7.846;2024-03-08T11:21:36;8.00;99.90
30336;DHT22;17142;47.990;7.846;2024-03-08T11:24:13;8.10;99.90
30336;DHT22;17142;47.990;7.846;2024-03-08T11:26:39;8.20;99.90
30336;DHT22;17142;47.990;7.846;2024-03-08T11:31:57;8.10;99.90
30336;DHT22;17142;47.990;7.846;2024-03-08T11:34:29;8.20;99.90
30336;DHT22;17142;47.990;7.846;2024-03-08T11:36:56;8.40;99.90
30336;DHT22;17142;47.990;7.846;2024-03-08T11:39:25;8.70;99.90
30336;DHT22;17142;47.990;7.846;2024-03-08T11:41:51;8.90;99.90
30336;DHT22;17142;47.990;7.846;2024-03-08T11:44:17;8.90;99.90
30336;DHT22;17142;47.990;7.846;2024-03-08T11:46:43;9.00;99.90
30336;DHT22;17142;47.990;7.846;2024-03-08T11:49:13;9.10;99.90
30336;DHT22;17142;47.990;7.846;2024-03-08T11:51:40;9.20;99.90
30336;DHT22;17142;47.990;7.846;2024-03-08T11:54:10;9.00;99.90
30336;DHT22;17142;47.990;7.846;2024-03-08T11:56:37;8.90;99.90
30336;DHT22;17142;47.990;7.846;2024-03-08T11:59:05;8.90;99.90
30336;DHT22;17142;47.990;7.846;2024-03-08T12:01:38;8.80;99.90
30336;DHT22;17142;47.990;7.846;2024-03-08T12:04:06;8.70;99.90
30336;DHT22;17142;47.990;7.846;2024-03-08T12:06:39;8.60;99.90
30336;DHT22;17142;47.990;7.846;2024-03-08T12:09:10;8.70;99.90
30336;DHT22;17142;47.990;7.846;2024-03-08T12:11:36;8.90;99.90
30336;DHT22;17142;47.990;7.846;2024-03-08T12:14:03;9.10;99.90
30336;DHT22;17142;47.990;7.846;2024-03-08T12:16:29;9.20;99.90
30336;DHT22;17142;47.990;7.846;2024-03-08T12:18:59;9.40;99.90
30336;DHT22;17142;47.990;7.846;2024-03-08T12:21:31;9.50;99.90
30336;DHT22;17142;47.990;7.846;2024-03-08T12:24:05;9.40;99.90
30336;DHT22;17142;47.990;7.846;2024-03-08T12:26:37;9.30;99.90
30336;DHT22;17142;47.990;7.846;2024-03-08T12:29:24;9.40;99.90
30336;DHT22;17142;47.990;7.846;2024-03-08T12:31:58;9.50;99.90
30336;DHT22;17142;47.990;7.846;2024-03-08T12:34:24;9.50;99.90
30336;DHT22;17142;47.990;7.846;2024-03-08T12:36:52;9.50;99.90
30336;DHT22;17142;47.990;7.846;2024-03-08T12:39:20;9.50;99.90
30336;DHT22;17142;47.990;7.846;2024-03-08T12:41:55;9.50;99.90
30336;DHT22;17142;47.990;7.846;2024-03-08T12:44:24;9.60;99.90
30336;DHT22;17142;47.990;7.846;2024-03-08T12:46:51;9.60;99.90
30336;DHT22;17142;47.990;7.846;2024-03-08T12:49:19;9.70;99.90
30336;DHT22;17142;47.990;7.846;2024-03-08T12:51:50;9.80;99.90
30336;DHT22;17142;47.990;7.846;2024-03-08T12:54:17;9.90;99.90
30336;DHT22;17142;47.990;7.846;2024-03-08T12:56:45;10.00;99.90
30336;DHT22;17142;47.990;7.846;2024-03-08T12:59:11;10.10;99.90
30336;DHT22;17142;47.990;7.846;2024-03-08T13:01:38;9.90;99.90
30336;DHT22;17142;47.990;7.846;2024-03-08T13:04:06;10.10;99.90
30336;DHT22;17142;47.990;7.846;2024-03-08T13:06:34;10.20;99.90
30336;DHT22;17142;47.990;7.846;2024-03-08T13:09:02;10.10;99.90
30336;DHT22;17142;47.990;7.846;2024-03-08T13:11:33;10.10;99.90
30336;DHT22;17142;47.990;7.846;2024-03-08T13:14:02;10.10;99.90
30336;DHT22;17142;47.990;7.846;2024-03-08T13:16:29;10.20;99.90
30336;DHT22;17142;47.990;7.846;2024-03-08T13:18:55;10.40;99.90
30336;DHT22;17142;47.990;7.846;2024-03-08T13:21:23;10.30;99.90
30336;DHT22;17142;47.990;7.846;2024-03-08T13:23:49;10.30;99.90
30336;DHT22;17142;47.990;7.846;2024-03-08T13:26:15;10.40;99.90
30336;DHT22;17142;47.990;7.846;2024-03-08T13:28:51;10.50;99.90
30336;DHT22;17142;47.990;7.846;2024-03-08T13:31:21;10.70;99.90
30336;DHT22;17142;47.990;7.846;2024-03-08T13:33:47;10.70;99.90
30336;DHT22;17142;47.990;7.846;2024-03-08T13:36:14;10.70;99.90
30336;DHT22;17142;47.990;7.846;2024-03-08T13:38:48;10.70;99.90
30336;DHT22;17142;47.990;7.846;2024-03-08T13:41:14;10.60;99.90
30336;DHT22;17142;47.990;7.846;2024-03-08T13:43:42;10.60;99.90
30336;DHT22;17142;47.990;7.846;2024-03-08T13:46:10;10.70;99.90
30336;DHT22;17142;47.990;7.846;2024-03-08T13:48:36;10.80;99.90
30336;DHT22;17142;47.990;7.846;2024-03-08T13:51:04;10.70;99.90
30336;DHT22;17142;47.990;7.846;2024-03-08T13:53:31;10.90;99.90
30336;DHT22;17142;47.990;7.846;2024-03-08T13:55:57;11.00;99.90
30336;DHT22;17142;47.990;7.846;2024-03-08T13:58:25;11.00;99.90
30336;DHT22;17142;47.990;7.846;2024-03-08T14:00:51;10.90;99.90
30336;DHT22;17142;47.990;7.846;2024-03-08T14:03:17;11.00;99.90
30336;DHT22;17142;47.990;7.846;2024-03-08T14:05:46;11.10;99.90
30336;DHT22;17142;47.990;7.846;2024-03-08T14:08:12;11.30;99.90
30336;DHT22;17142;47.990;7.846;2024-03-08T14:10:38;11.10;99.90
30336;DHT22;17142;47.990;7.846;2024-03-08T14:13:04;11.00;99.90
30336;DHT22;17142;47.990;7.846;2024-03-08T14:15:32;11.10;99.90
30336;DHT22;17142;47.990;7.846;2024-03-08T14:17:57;11.00;99.90
30336;DHT22;17142;47.990;7.846;2024-03-08T14:20:26;11.00;99.90
30336;DHT22;17142;47.990;7.846;2024-03-08T14:22:56;11.00;99.90
30336;DHT22;17142;47.990;7.846;2024-03-08T14:25:22;11.20;99.90
30336;DHT22;17142;47.990;7.846;2024-03-08T14:27:49;11.20;99.90
30336;DHT22;17142;47.990;7.846;2024-03-08T14:30:16;11.10;99.90
30336;DHT22;17142;47.990;7.846;2024-03-08T14:32:58;11.10;99.90
30336;DHT22;17142;47.990;7.846;2024-03-08T14:35:25;11.00;99.90
30336;DHT22;17142;47.990;7.846;2024-03-08T14:37:52;10.90;99.90
30336;DHT22;17142;47.990;7.846;2024-03-08T14:40:18;10.90;99.90
30336;DHT22;17142;47.990;7.846;2024-03-08T14:42:48;10.80;99.90
30336;DHT22;17142;47.990;7.846;2024-03-08T14:45:15;10.90;99.90
30336;DHT22;17142;47.990;7.846;2024-03-08T14:47:44;10.90;99.90
30336;DHT22;17142;47.990;7.846;2024-03-08T14:50:09;10.90;99.90
30336;DHT22;17142;47.990;7.846;2024-03-08T14:52:35;10.90;99.90
30336;DHT22;17142;47.990;7.846;2024-03-08T14:55:01;10.80;99.90
30336;DHT22;17142;47.990;7.846;2024-03-08T14:57:28;10.70;99.90
30336;DHT22;17142;47.990;7.846;2024-03-08T14:59:56;10.80;99.90
30336;DHT22;17142;47.990;7.846;2024-03-08T15:02:22;10.80;99.90
30336;DHT22;17142;47.990;7.846;2024-03-08T15:04:47;10.70;99.90
30336;DHT22;17142;47.990;7.846;2024-03-08T15:07:23;10.70;99.90
30336;DHT22;17142;47.990;7.846;2024-03-08T15:09:49;10.80;99.90
30336;DHT22;17142;47.990;7.846;2024-03-08T15:12:15;10.80;99.90
30336;DHT22;17142;47.990;7.846;2024-03-08T15:14:43;10.70;99.90
30336;DHT22;17142;47.990;7.846;2024-03-08T15:17:10;10.80;99.90
30336;DHT22;17142;47.990;7.846;2024-03-08T15:19:44;10.70;99.90
30336;DHT22;17142;47.990;7.846;2024-03-08T15:22:10;10.60;99.90
30336;DHT22;17142;47.990;7.846;2024-03-08T15:24:37;10.60;99.90
30336;DHT22;17142;47.990;7.846;2024-03-08T15:27:03;10.60;99.90
30336;DHT22;17142;47.990;7.846;2024-03-08T15:29:31;10.70;99.90
30336;DHT22;17142;47.990;7.846;2024-03-08T15:32:03;10.80;99.90
30336;DHT22;17142;47.990;7.846;2024-03-08T15:34:29;10.80;99.90
30336;DHT22;17142;47.990;7.846;2024-03-08T15:36:59;10.80;99.90
30336;DHT22;17142;47.990;7.846;2024-03-08T15:39:29;10.90;99.90
30336;DHT22;17142;47.990;7.846;2024-03-08T15:41:58;11.00;99.90
30336;DHT22;17142;47.990;7.846;2024-03-08T15:44:26;11.00;99.90
30336;DHT22;17142;47.990;7.846;2024-03-08T15:46:52;11.10;99.90
30336;DHT22;17142;47.990;7.846;2024-03-08T15:49:18;11.10;99.90
30336;DHT22;17142;47.990;7.846;2024-03-08T15:51:46;11.10;99.90
30336;DHT22;17142;47.990;7.846;2024-03-08T15:54:11;11.20;99.90
30336;DHT22;17142;47.990;7.846;2024-03-08T15:56:39;11.20;99.90
30336;DHT22;17142;47.990;7.846;2024-03-08T15:59:05;11.30;99.90
30336;DHT22;17142;47.990;7.846;2024-03-08T16:01:33;11.30;99.90